Terminal Aerodrome Forecast
Issued by NWS

Home | Current Version | Previous Version | Text Only | Print | Product List | Glossary On
Versions: 1 2 3 4 5 6 7 8 9 10 11 12 13 14 15 16 17 18 19 20 21 22 23 24 25 26 27 28 29 30
000
FTUS45 KABQ 171133
TAFTCC
TAF
KTCC 171133Z 1712/1812 16007KT P6SM VCSH BKN100
     FM171500 19010KT P6SM SCT070 SCT120
     FM172100 20015G25KT P6SM VCSH BKN080 BKN120
      TEMPO 1722/1802 VRB22G35KT 6SM -TSRA BKN050CB
     FM180200 06008KT P6SM VCSH SCT070 BKN100=

USA.gov is the U.S. government's official web portal to all federal, state and local government web resources and services.